Terminal Aerodrome Forecast
Issued by NWS

Home | Current Version | Previous Version | Text Only | Print | Product List | Glossary On
Versions: 1 2 3 4 5 6 7 8 9 10 11 12 13 14 15 16 17 18
668
FTUS43 KDTX 200523
TAFDET
TAF
KDET 200523Z 2006/2106 24006KT P6SM BKN120
     FM201100 23010KT P6SM BKN200
     FM201700 22014G22KT P6SM SCT250
     FM210200 21012KT P6SM BKN200 WS012/24040KT=

USA.gov is the U.S. government's official web portal to all federal, state and local government web resources and services.